createdAt,value
2019-01-04T00:02:35.400Z,6.13
2019-01-04T00:05:15.982Z,5.87
2019-01-04T00:07:56.664Z,10.93
2019-01-04T00:10:37.368Z,6.83
2019-01-04T00:13:18.461Z,7.00
2019-01-04T00:15:59.553Z,6.57
2019-01-04T00:18:40.316Z,7.40
2019-01-04T00:21:20.569Z,8.23
2019-01-04T00:24:01.275Z,6.23
2019-01-04T00:26:42.108Z,7.87
2019-01-04T00:29:23.200Z,7.90
2019-01-04T00:32:03.906Z,7.23
2019-01-04T00:34:44.806Z,6.57
2019-01-04T00:37:25.408Z,11.90
2019-01-04T00:39:54.189Z,7.17
2019-01-04T00:42:41.985Z,11.63
2019-01-04T00:45:29.748Z,7.37
2019-01-04T00:48:17.495Z,8.57
2019-01-04T00:51:05.256Z,10.23
2019-01-04T00:53:53.321Z,7.47
2019-01-04T00:57:00.412Z,8.40
2019-01-04T01:00:07.477Z,8.43
2019-01-04T01:03:14.558Z,7.17
2019-01-04T01:06:21.641Z,8.87
2019-01-04T01:09:30.464Z,9.50
2019-01-04T01:12:38.968Z,7.60
2019-01-04T01:15:46.060Z,7.90
2019-01-04T01:18:53.117Z,7.80
2019-01-04T01:22:00.208Z,10.83
2019-01-04T01:25:08.759Z,9.30
2019-01-04T01:28:17.234Z,10.33
2019-01-04T01:30:58.179Z,10.87
2019-01-04T01:33:39.291Z,6.23
2019-01-04T01:36:20.301Z,9.57
2019-01-04T01:42:59.032Z,9.03
2019-01-04T01:46:06.120Z,6.50
2019-01-04T01:49:13.229Z,7.30
2019-01-04T01:52:21.694Z,9.23
2019-01-04T01:55:09.452Z,11.37
2019-01-04T01:57:57.276Z,7.60
2019-01-04T02:00:45.033Z,8.13
2019-01-04T02:03:25.865Z,8.00
2019-01-04T02:06:06.676Z,11.80
2019-01-04T02:08:47.064Z,9.90
2019-01-04T02:11:27.801Z,10.17
2019-01-04T02:14:08.941Z,6.67
2019-01-04T02:16:49.617Z,11.40
2019-01-04T02:19:30.320Z,7.20
2019-01-04T02:22:11.196Z,9.13
2019-01-04T02:24:51.921Z,8.90
2019-01-04T02:27:32.757Z,8.30
2019-01-04T02:30:13.593Z,8.47
2019-01-04T02:32:52.268Z,13.43
2019-01-04T02:35:40.048Z,8.17
2019-01-04T02:38:27.828Z,8.20
2019-01-04T02:41:15.626Z,8.13
2019-01-04T02:44:03.726Z,5.40
2019-01-04T02:46:51.472Z,5.97
2019-01-04T02:49:39.237Z,9.60
2019-01-04T02:52:26.997Z,7.27
2019-01-04T02:55:14.759Z,8.00
2019-01-04T02:58:02.531Z,7.63
2019-01-04T03:00:50.270Z,8.43
2019-01-04T03:03:38.058Z,9.00
2019-01-04T03:06:25.801Z,8.37
2019-01-04T03:09:13.650Z,5.43
2019-01-04T03:12:01.418Z,8.57
2019-01-04T03:14:49.177Z,8.23
2019-01-04T03:17:37.168Z,7.10
2019-01-04T03:20:25.174Z,6.37
2019-01-04T03:23:12.901Z,9.37
2019-01-04T03:26:00.911Z,9.67
2019-01-04T03:28:48.649Z,7.53
2019-01-04T03:31:36.427Z,7.97
2019-01-04T03:34:24.187Z,9.37
2019-01-04T03:37:11.937Z,7.03
2019-01-04T03:39:59.668Z,7.27
2019-01-04T03:42:40.193Z,11.90
2019-01-04T03:45:20.941Z,14.30
2019-01-04T03:48:01.821Z,7.87
2019-01-04T03:50:42.553Z,8.03
2019-01-04T03:53:23.085Z,8.70
2019-01-04T03:56:04.050Z,8.93
2019-01-04T03:58:44.847Z,7.53
2019-01-04T04:01:25.473Z,7.83
2019-01-04T04:04:06.312Z,8.53
2019-01-04T04:06:47.198Z,12.70
2019-01-04T04:09:28.342Z,8.73
2019-01-04T04:12:08.936Z,9.20
2019-01-04T04:14:50.126Z,6.67
2019-01-04T04:17:30.878Z,10.43
2019-01-04T04:20:11.809Z,9.60
2019-01-04T04:25:18.427Z,9.53
2019-01-04T04:27:59.629Z,8.80
2019-01-04T04:30:40.419Z,9.17
2019-01-04T04:33:21.209Z,10.27
2019-01-04T04:36:02.128Z,12.60
2019-01-04T04:38:30.528Z,10.80
2019-01-04T04:41:18.276Z,15.63
2019-01-04T04:44:06.294Z,12.27
2019-01-04T04:46:54.032Z,10.33
2019-01-04T04:49:41.891Z,14.80
2019-01-04T04:52:29.626Z,9.73
2019-01-04T04:55:17.392Z,9.03
2019-01-04T04:58:05.124Z,8.67
2019-01-04T05:00:53.162Z,10.27
2019-01-04T05:03:40.921Z,7.67
2019-01-04T05:06:28.676Z,6.50
2019-01-04T05:09:09.906Z,10.07
2019-01-04T05:11:50.606Z,6.27
2019-01-04T05:17:29.621Z,6.50
2019-01-04T05:20:10.404Z,9.20
2019-01-04T05:22:50.924Z,7.47
2019-01-04T05:25:31.999Z,7.00
2019-01-04T05:28:00.420Z,8.20
2019-01-04T05:30:29.079Z,7.57
2019-01-04T05:33:17.137Z,6.60
2019-01-04T05:36:04.910Z,6.93
2019-01-04T05:38:52.644Z,5.30
2019-01-04T05:41:40.395Z,6.80
2019-01-04T05:44:28.160Z,5.83
2019-01-04T05:47:15.946Z,7.17
2019-01-04T05:50:04.213Z,6.97
2019-01-04T05:52:52.238Z,6.70
2019-01-04T05:55:39.985Z,5.47
2019-01-04T05:58:27.736Z,7.13
2019-01-04T06:01:15.861Z,10.20
2019-01-04T06:04:03.684Z,5.60
2019-01-04T06:06:51.685Z,5.23
2019-01-04T06:09:32.669Z,8.20
2019-01-04T06:12:13.036Z,3.20
2019-01-04T06:14:54.039Z,4.20
2019-01-04T06:17:34.905Z,4.83
2019-01-04T06:20:15.921Z,4.53
2019-01-04T06:22:56.792Z,4.13
2019-01-04T06:25:25.218Z,6.27
2019-01-04T06:28:25.139Z,4.87
2019-01-04T06:30:43.327Z,4.70
2019-01-04T06:33:31.532Z,7.47
2019-01-04T06:36:19.411Z,6.27
2019-01-04T06:39:07.466Z,6.17
2019-01-04T06:41:55.621Z,7.23
2019-01-04T06:44:43.429Z,6.03
2019-01-04T06:47:31.503Z,6.53
2019-01-04T06:50:12.581Z,10.87
2019-01-04T06:52:53.307Z,8.20
2019-01-04T06:55:34.179Z,10.03
2019-01-04T06:58:18.244Z,7.53
2019-01-04T07:00:59.420Z,8.00
2019-01-04T07:03:28.327Z,11.37
2019-01-04T07:06:19.043Z,14.10
2019-01-04T07:09:06.879Z,9.23
2019-01-04T07:11:35.445Z,12.10
2019-01-04T07:14:23.315Z,10.37
2019-01-04T07:17:11.193Z,9.30
2019-01-04T07:19:39.973Z,12.90
2019-01-04T07:22:27.901Z,9.07
2019-01-04T07:24:56.452Z,9.73
2019-01-04T07:27:44.313Z,7.73
2019-01-04T07:30:32.159Z,7.27
2019-01-04T07:33:20.043Z,7.00
2019-01-04T07:36:08.189Z,7.43
2019-01-04T07:38:56.004Z,7.73
2019-01-04T07:41:43.798Z,6.33
2019-01-04T07:44:31.668Z,5.67
2019-01-04T07:47:19.770Z,6.50
2019-01-04T07:50:07.720Z,8.93
2019-01-04T07:52:55.692Z,6.40
2019-01-04T07:55:43.648Z,4.27
2019-01-04T07:58:24.528Z,3.80
2019-01-04T08:01:05.087Z,3.83
2019-01-04T08:03:46.238Z,2.73
2019-01-04T08:06:14.779Z,4.63
2019-01-04T08:08:43.367Z,4.20
2019-01-04T08:11:31.506Z,2.70
2019-01-04T08:14:19.327Z,3.37
2019-01-04T08:17:07.145Z,4.57
2019-01-04T08:19:54.889Z,3.93
2019-01-04T08:22:42.649Z,8.20
2019-01-04T08:25:30.471Z,7.93
2019-01-04T08:28:18.236Z,9.27
2019-01-04T08:31:05.962Z,9.13
2019-01-04T08:33:54.076Z,7.03
2019-01-04T08:36:41.824Z,4.23
2019-01-04T08:39:29.593Z,7.93
2019-01-04T08:42:17.328Z,9.53
2019-01-04T08:45:05.977Z,6.53
2019-01-04T08:47:53.769Z,11.37
2019-01-04T08:50:41.560Z,10.20
2019-01-04T08:53:22.497Z,6.43
2019-01-04T08:56:03.148Z,10.33
2019-01-04T08:58:44.163Z,5.00
2019-01-04T09:01:24.352Z,6.20
2019-01-04T09:04:05.026Z,9.00
2019-01-04T09:06:45.442Z,7.37
2019-01-04T09:09:26.516Z,7.53
2019-01-04T09:12:07.686Z,9.27
2019-01-04T09:14:48.278Z,4.60
2019-01-04T09:17:28.848Z,8.80
2019-01-04T09:20:09.909Z,4.63
2019-01-04T09:22:50.669Z,12.47
2019-01-04T09:25:31.541Z,6.63
2019-01-04T09:28:17.905Z,11.47
2019-01-04T09:30:55.050Z,16.30
2019-01-04T09:33:35.684Z,10.20
2019-01-04T09:36:15.930Z,13.30
2019-01-04T09:38:56.922Z,14.00
2019-01-04T09:41:37.391Z,12.93
2019-01-04T09:44:17.950Z,13.40
2019-01-04T09:46:58.953Z,12.70
2019-01-04T09:49:39.704Z,12.00
2019-01-04T09:52:20.025Z,16.43
2019-01-04T09:55:00.841Z,15.63
2019-01-04T09:57:41.193Z,16.07
2019-01-04T10:00:21.733Z,13.63
2019-01-04T10:03:03.060Z,12.10
2019-01-04T10:05:43.661Z,11.10
2019-01-04T10:08:24.157Z,14.10
2019-01-04T10:11:04.612Z,14.90
2019-01-04T10:13:45.881Z,11.83
2019-01-04T10:16:27.140Z,14.57
2019-01-04T10:19:07.864Z,15.13
2019-01-04T10:21:48.708Z,8.23
2019-01-04T10:24:29.702Z,9.33
2019-01-04T10:26:58.167Z,8.53
2019-01-04T10:29:45.933Z,11.77
2019-01-04T10:32:33.798Z,9.57
2019-01-04T10:35:02.232Z,15.07
2019-01-04T10:37:43.101Z,15.73
2019-01-04T10:40:24.034Z,12.17
2019-01-04T10:43:04.940Z,6.47
2019-01-04T10:45:47.669Z,12.67
2019-01-04T10:48:28.718Z,14.53
2019-01-04T10:51:09.672Z,15.00
2019-01-04T10:53:50.661Z,15.67
2019-01-04T10:56:59.680Z,12.40
2019-01-04T10:59:28.369Z,11.00
2019-01-04T11:05:23.065Z,16.67
2019-01-04T11:11:06.291Z,9.73
2019-01-04T11:13:54.193Z,14.57
2019-01-04T11:16:41.916Z,3.90
2019-01-04T11:19:41.851Z,12.30
2019-01-04T11:22:38.618Z,6.40
2019-01-04T11:25:45.784Z,15.90
2019-01-04T11:28:52.893Z,8.37
2019-01-04T11:32:01.601Z,9.03
2019-01-04T11:35:08.732Z,11.73
2019-01-04T11:38:17.385Z,6.53
2019-01-04T11:41:25.899Z,18.73
2019-01-04T11:44:07.074Z,11.87
2019-01-04T11:46:49.106Z,15.47
2019-01-04T11:49:31.623Z,7.77
2019-01-04T11:52:15.344Z,12.47
2019-01-04T11:54:56.400Z,12.13
2019-01-04T11:57:36.784Z,6.30
2019-01-04T12:00:17.557Z,9.90
2019-01-04T12:02:59.713Z,15.37
2019-01-04T12:05:40.175Z,6.80
2019-01-04T12:08:20.324Z,7.73
2019-01-04T12:14:14.102Z,5.97
2019-01-04T12:16:42.816Z,7.00
2019-01-04T12:19:24.041Z,7.77
2019-01-04T12:22:04.665Z,7.93
2019-01-04T12:24:45.610Z,10.50
2019-01-04T12:27:26.687Z,13.83
2019-01-04T12:29:55.103Z,5.90
2019-01-04T12:32:43.133Z,4.53
2019-01-04T12:35:30.904Z,9.70
2019-01-04T12:38:18.768Z,13.37
2019-01-04T12:41:06.694Z,8.73
2019-01-04T12:43:54.683Z,6.50
2019-01-04T12:46:42.502Z,11.10
2019-01-04T12:49:30.327Z,8.60
2019-01-04T12:54:50.344Z,10.70
2019-01-04T12:57:31.203Z,7.87
2019-01-04T13:00:11.478Z,10.53
2019-01-04T13:02:52.776Z,6.23
2019-01-04T13:05:33.713Z,9.57
2019-01-04T13:08:14.767Z,8.50
2019-01-04T13:10:55.553Z,11.43
2019-01-04T13:13:36.797Z,4.03
2019-01-04T13:16:17.914Z,10.50
2019-01-04T13:18:58.836Z,9.93
2019-01-04T13:21:39.518Z,13.37
2019-01-04T13:24:20.661Z,10.80
2019-01-04T13:27:01.663Z,10.47
2019-01-04T13:29:42.261Z,7.17
2019-01-04T13:32:23.250Z,6.03
2019-01-04T13:37:47.076Z,8.13
2019-01-04T13:40:34.839Z,7.93
2019-01-04T13:43:22.665Z,5.27
2019-01-04T13:46:10.741Z,6.27
2019-01-04T13:49:17.798Z,9.67
2019-01-04T13:51:58.784Z,11.77
2019-01-04T13:54:39.857Z,11.77
2019-01-04T13:57:20.773Z,4.93
2019-01-04T14:00:01.707Z,8.77
2019-01-04T14:02:42.479Z,15.57
2019-01-04T14:05:23.001Z,14.43
2019-01-04T14:08:03.996Z,11.67
2019-01-04T14:10:44.892Z,17.40
2019-01-04T14:13:25.843Z,13.90
2019-01-04T14:16:06.792Z,18.17
2019-01-04T14:18:47.929Z,19.50
2019-01-04T14:21:16.337Z,7.13
2019-01-04T14:24:04.116Z,15.83
2019-01-04T14:26:52.125Z,16.93
2019-01-04T14:29:39.887Z,17.07
2019-01-04T14:32:27.655Z,12.87
2019-01-04T14:35:15.401Z,15.57
2019-01-04T14:38:03.166Z,14.13
2019-01-04T14:40:50.908Z,10.13
2019-01-04T14:43:38.996Z,11.33
2019-01-04T14:46:47.491Z,13.13
2019-01-04T14:49:35.266Z,14.83
2019-01-04T14:52:23.025Z,11.70
2019-01-04T14:55:10.830Z,12.83
2019-01-04T14:57:58.616Z,15.03
2019-01-04T15:00:46.621Z,9.93
2019-01-04T15:03:34.408Z,14.20
2019-01-04T15:06:22.128Z,14.47
2019-01-04T15:09:10.188Z,10.23
2019-01-04T15:11:57.962Z,12.70
2019-01-04T15:15:06.624Z,14.63
2019-01-04T15:17:35.077Z,10.63
2019-01-04T15:20:15.546Z,10.77
2019-01-04T15:25:39.353Z,10.87
2019-01-04T15:28:19.993Z,9.03
2019-01-04T15:31:00.776Z,7.67
2019-01-04T15:33:41.802Z,8.23
2019-01-04T15:36:22.966Z,8.03
2019-01-04T15:39:04.228Z,9.97
2019-01-04T15:41:45.141Z,7.67
2019-01-04T15:44:25.706Z,6.50
2019-01-04T15:47:06.397Z,10.60
2019-01-04T15:49:45.259Z,8.23
2019-01-04T15:52:33.039Z,7.07
2019-01-04T15:55:21.022Z,4.37
2019-01-04T15:58:08.782Z,9.17
2019-01-04T16:00:56.565Z,4.97
2019-01-04T16:03:44.421Z,7.73
2019-01-04T16:06:32.551Z,8.97
2019-01-04T16:09:20.317Z,6.40
2019-01-04T16:12:08.152Z,8.03
2019-01-04T16:17:43.770Z,5.63
2019-01-04T16:20:24.652Z,6.23
2019-01-04T16:23:05.232Z,5.67
2019-01-04T16:25:33.639Z,7.53
2019-01-04T16:28:21.401Z,6.03
2019-01-04T16:31:09.141Z,7.33
2019-01-04T16:33:56.976Z,5.97
2019-01-04T16:36:44.734Z,7.13
2019-01-04T16:39:32.757Z,13.50
2019-01-04T16:42:20.525Z,14.37
2019-01-04T16:45:08.294Z,16.60
2019-01-04T16:50:43.614Z,15.83
2019-01-04T16:53:24.261Z,12.07
2019-01-04T16:56:04.828Z,13.13
2019-01-04T17:01:16.276Z,15.23
2019-01-04T17:04:04.264Z,15.97
2019-01-04T17:06:52.026Z,19.37
2019-01-04T17:09:39.819Z,18.50
2019-01-04T17:12:48.526Z,20.30
2019-01-04T17:15:36.636Z,13.10
2019-01-04T17:18:24.618Z,13.93
2019-01-04T17:21:12.405Z,19.53
2019-01-04T17:24:00.143Z,16.27
2019-01-04T17:26:47.969Z,18.63
2019-01-04T17:29:36.129Z,17.27
2019-01-04T17:32:23.990Z,22.37
2019-01-04T17:35:11.837Z,15.63
2019-01-04T17:37:40.246Z,18.00
2019-01-04T17:40:28.012Z,16.80
2019-01-04T17:43:09.152Z,17.97
2019-01-04T17:45:49.792Z,18.17
2019-01-04T17:48:30.780Z,13.40
2019-01-04T17:51:11.691Z,11.00
2019-01-04T17:53:52.378Z,14.30
2019-01-04T17:56:33.070Z,15.53
2019-01-04T17:59:14.207Z,17.00
2019-01-04T18:01:55.358Z,15.47
2019-01-04T18:04:36.212Z,20.10
2019-01-04T18:07:16.664Z,18.93
2019-01-04T18:09:57.418Z,15.90
2019-01-04T18:12:37.912Z,12.63
2019-01-04T18:15:18.346Z,6.60
2019-01-04T18:17:59.270Z,10.10
2019-01-04T18:20:40.098Z,11.03
2019-01-04T18:23:20.929Z,15.20
2019-01-04T18:26:02.150Z,9.60
2019-01-04T18:28:42.740Z,6.73
2019-01-04T18:31:23.379Z,5.10
2019-01-04T18:33:51.804Z,11.80
2019-01-04T18:36:58.930Z,11.77
2019-01-04T18:39:46.747Z,8.83
2019-01-04T18:42:27.542Z,9.87
2019-01-04T18:45:08.417Z,8.77
2019-01-04T18:47:49.213Z,11.80
2019-01-04T18:50:30.271Z,16.17
2019-01-04T18:53:10.810Z,7.50
2019-01-04T18:55:51.409Z,8.07
2019-01-04T18:58:31.699Z,7.40
2019-01-04T19:01:13.776Z,9.30
2019-01-04T19:03:54.585Z,5.27
2019-01-04T19:06:35.392Z,11.60
2019-01-04T19:09:16.286Z,11.67
2019-01-04T19:11:56.718Z,5.53
2019-01-04T19:20:14.982Z,15.27
2019-01-04T19:23:02.713Z,7.63
2019-01-04T19:25:42.965Z,7.07
2019-01-04T19:28:21.702Z,8.10
2019-01-04T19:31:09.467Z,10.00
2019-01-04T19:33:57.241Z,11.67
2019-01-04T19:36:45.481Z,5.03
2019-01-04T19:39:44.999Z,10.13
2019-01-04T19:42:22.801Z,10.97
2019-01-04T19:45:10.558Z,7.90
2019-01-04T19:47:58.341Z,9.80
2019-01-04T19:50:46.192Z,11.07
2019-01-04T19:53:33.928Z,9.67
2019-01-04T19:56:21.696Z,7.93
2019-01-04T19:59:09.444Z,10.03
2019-01-04T20:01:57.206Z,4.03
2019-01-04T20:04:44.950Z,7.27
2019-01-04T20:07:53.446Z,9.60
2019-01-04T20:11:19.750Z,7.00
2019-01-04T20:14:28.453Z,9.63
2019-01-04T20:17:14.842Z,5.93
2019-01-04T20:20:21.943Z,12.50
2019-01-04T20:23:28.856Z,5.27
2019-01-04T20:26:29.190Z,6.43
2019-01-04T20:29:13.902Z,3.63
2019-01-04T20:32:01.620Z,4.43
2019-01-04T20:35:08.661Z,10.73
2019-01-04T20:38:15.717Z,10.10
2019-01-04T20:47:59.374Z,11.13
2019-01-04T20:51:06.321Z,6.47
2019-01-04T20:59:57.485Z,8.10
2019-01-04T21:03:04.446Z,6.77
2019-01-04T21:06:11.392Z,6.17
2019-01-04T21:09:18.610Z,6.10
2019-01-04T21:12:25.557Z,3.73
2019-01-04T21:15:32.513Z,6.57
2019-01-04T21:21:28.643Z,5.83
2019-01-04T21:24:35.818Z,4.53
2019-01-04T21:27:42.793Z,4.07
2019-01-04T21:30:50.007Z,3.97
2019-01-04T21:33:57.219Z,3.77
2019-01-04T21:37:04.423Z,4.83
2019-01-04T21:40:11.371Z,4.07
2019-01-04T21:46:13.269Z,3.57
2019-01-04T21:49:20.490Z,3.00
2019-01-04T21:52:27.441Z,2.67
2019-01-04T21:55:34.404Z,5.00
2019-01-04T21:58:41.778Z,2.57
2019-01-04T22:07:26.469Z,2.53
2019-01-04T22:13:27.937Z,3.93
2019-01-04T22:16:35.254Z,3.63
2019-01-04T22:19:42.207Z,2.37
2019-01-04T22:31:33.720Z,4.27
2019-01-04T22:34:40.898Z,5.20
2019-01-04T22:40:42.437Z,3.20
2019-01-04T22:43:49.455Z,4.10
2019-01-04T22:46:56.813Z,4.47
2019-01-04T22:53:05.256Z,1.50
2019-01-04T22:55:48.034Z,4.23
2019-01-04T22:58:47.953Z,2.13
2019-01-04T23:01:47.658Z,2.60
2019-01-04T23:04:29.773Z,2.90
2019-01-04T23:07:17.388Z,2.93
2019-01-04T23:10:24.694Z,2.73
2019-01-04T23:13:31.973Z,5.93
2019-01-04T23:16:39.003Z,11.67
2019-01-04T23:19:46.317Z,4.47
2019-01-04T23:22:54.812Z,2.10
2019-01-04T23:26:01.788Z,8.27
2019-01-04T23:29:08.996Z,6.47
2019-01-04T23:32:16.047Z,2.10
2019-01-04T23:35:23.082Z,3.50
2019-01-04T23:38:30.016Z,13.23
2019-01-04T23:41:37.164Z,2.80
2019-01-04T23:44:44.363Z,6.53
2019-01-04T23:47:29.777Z,11.57
2019-01-04T23:53:23.282Z,2.27
2019-01-04T23:56:22.728Z,10.20
